Piper Memorial (LHV)
Lock Haven, PA
Field Elevation: 556
Lat: 41°08.15N  Long: 77°25.34W
CTAF/Unicom Freq: 122.8000
Weather Advisories
2016-10-25   18:59 Z
Altimeter 30.28" Hg
Wind 310° @ 9 KT
Gusts 17 KT
Visibility --
Temperature 11° C (52° F)
Dewpoint -6° C (21° F)
Relative Humidity 31%
Density Altitude --
Condensation Altitude 8,600 feet
Wind and Runways
Indicated Runway = 27
Headwind = 7 kt
Crosswind = 6 kt
More Info
All DigiWx sites map
Weather Radar
NOAA Forecast
Airport IQ 5010
(PS81) Robert Packer Hospital
(74PN) Altoona Regional
about DigiWx
FAA Disclaimer: The data displayed is for advisory purposes only and is not to be used for flight planning or operations. For official data, please call (not available) to hear the current automated AWOS voice message.
  METAR LHV 251859Z AUTO 31009G17KT 11/M06 A3028